MST,Max TemperatureF,Mean TemperatureF,Min TemperatureF,Max Dew PointF,MeanDew PointF,Min DewpointF,Max Humidity, Mean Humidity, Min Humidity, Max Sea Level PressureIn, Mean Sea Level PressureIn, Min Sea Level PressureIn, Max VisibilityMiles, Mean VisibilityMiles, Min VisibilityMiles, Max Wind SpeedMPH, Mean Wind SpeedMPH, Max Gust SpeedMPH,PrecipitationIn, CloudCover, Events, WindDirDegrees
2013-12-1,60,42,24,32,26,19,81,57,27,30.14,29.99,29.80,10,10,10,21,9,29,0.00,3,,276
2013-12-2,64,48,33,32,28,23,81,49,21,29.80,29.65,29.56,10,10,10,30,11,39,0.00,1,,275
2013-12-3,55,37,19,32,25,12,81,61,38,29.77,29.60,29.51,10,10,7,29,14,36,0.00,7,Snow,337
2013-12-4,19,12,5,14,5,-6,80,68,57,30.12,29.89,29.74,10,8,2,28,21,34,0.00,6,Snow,331
2013-12-5,19,10,0,1,-3,-8,72,56,42,30.23,30.15,30.10,10,10,10,12,8,18,0.00,3,,355
2013-12-6,19,12,5,3,-1,-4,79,65,45,30.38,30.30,30.23,10,9,4,10,7,,0.00,4,Snow,132
2013-12-7,14,7,0,3,0,-6,79,67,53,30.35,30.16,29.92,10,10,5,25,13,32,0.00,7,Snow,146
2013-12-8,21,10,0,10,3,-8,85,74,54,30.11,29.91,29.81,10,7,1,15,8,22,0.00,5,Snow,276
2013-12-9,26,13,0,10,3,-8,73,63,43,30.15,30.09,30.03,10,10,10,17,9,23,0.00,1,,260
2013-12-10,44,26,8,21,12,1,86,58,29,30.29,30.08,29.95,10,10,10,22,10,29,0.00,2,,295
2013-12-11,39,22,5,21,14,1,86,73,42,30.43,30.33,30.27,10,10,10,23,9,28,0.00,0,,235
2013-12-12,55,34,14,27,15,9,86,60,20,30.30,30.14,29.92,10,10,10,12,7,,0.00,0,,255
2013-12-13,53,36,19,25,19,12,80,58,26,30.12,29.90,29.80,10,10,10,25,11,36,0.00,1,,325
2013-12-14,50,37,24,30,22,14,93,61,27,30.21,30.16,30.11,10,10,10,22,12,28,0.00,3,,300
2013-12-15,60,44,28,23,20,18,65,47,22,30.14,30.07,30.01,10,10,10,24,13,30,0.00,0,,282
2013-12-16,62,44,26,23,19,16,74,37,17,30.22,30.10,30.04,10,10,10,24,11,31,0.00,0,,301
2013-12-17,59,42,26,23,20,16,74,45,20,30.32,30.18,29.98,10,10,10,15,9,18,0.00,0,,247
2013-12-18,69,48,28,23,19,14,65,41,12,29.97,29.82,29.74,10,10,7,16,8,16,0.00,0,,273
2013-12-19,41,28,14,28,22,5,86,75,57,29.93,29.75,29.62,10,10,2,26,10,32,0.00,3,Snow,35
2013-12-20,28,21,14,14,10,7,86,70,47,29.92,29.81,29.67,10,10,10,17,9,25,0.00,2,,271
2013-12-21,41,26,12,30,18,9,93,72,33,29.89,29.69,29.61,10,10,3,23,8,28,0.00,2,Snow,331
2013-12-22,41,28,14,30,18,10,93,72,39,30.28,30.04,29.89,10,9,0,21,8,26,0.00,5,Snow,297
2013-12-23,33,17,1,25,14,-4,93,81,64,30.35,30.25,30.09,10,9,2,17,7,,0.00,2,Snow,196
2013-12-24,51,35,19,34,26,14,93,75,47,30.28,30.08,29.95,10,10,10,30,10,40,0.00,3,,293
2013-12-25,46,32,19,21,18,14,93,61,27,30.39,30.29,30.18,10,10,10,21,10,26,0.00,0,,282
2013-12-26,53,37,21,19,17,12,80,55,24,30.25,30.21,30.13,10,10,10,21,12,29,0.00,0,,279
2013-12-27,62,42,23,27,21,18,80,54,22,30.24,30.17,30.01,10,10,10,13,9,20,0.00,0,,264
2013-12-28,60,40,19,28,21,9,80,59,22,30.25,29.97,29.83,10,10,10,31,13,40,0.00,2,,321
2013-12-29,33,20,8,19,10,3,79,62,38,30.29,30.16,29.95,10,10,10,24,12,31,0.00,2,,266
2013-12-30,48,34,21,23,18,14,80,56,32,30.17,30.10,29.94,10,10,10,32,12,43,0.00,2,,282
2013-12-31,59,42,24,28,22,18,74,53,25,30.10,29.97,29.91,10,10,10,22,10,32,0.00,1,,262